Time;durP1;ratioP1;P1;durP2;ratioP2;P2;SDS_P1;SDS_P2;PMS_P1;PMS_P2;Temp;Humidity;BMP_temperature;BMP_pressure;BME280_temperature;BME280_humidity;BME280_pressure;Samples;Min_cycle;Max_cycle;Signal;HPM_P1;HPM_P2
2023/05/07 00:01:26;;;;;;;5.90;3.80;;;;;;;15.86;79.24;155435.50;4952850;28;20478;-85
2023/05/07 00:03:54;;;;;;;3.93;3.47;;;;;;;15.83;81.22;155427.75;4960096;28;20561;-86
2023/05/07 00:06:21;;;;;;;3.63;3.33;;;;;;;15.75;82.33;155408.22;4973296;28;20446;-86
2023/05/07 00:08:47;;;;;;;4.37;3.87;;;;;;;15.62;83.21;155374.41;4939408;28;20446;-85
2023/05/07 00:11:14;;;;;;;4.70;3.80;;;;;;;15.53;84.31;155351.06;4955413;28;20452;-85
2023/05/07 00:13:41;;;;;;;3.63;3.33;;;;;;;15.48;82.65;155338.06;4955024;28;20474;-85
2023/05/07 00:16:07;;;;;;;4.07;3.67;;;;;;;15.52;84.92;155347.13;4955214;28;20988;-86
2023/05/07 00:18:34;;;;;;;4.80;3.50;;;;;;;15.48;82.64;155336.75;4968586;28;21161;-85
2023/05/07 00:21:02;;;;;;;3.57;3.27;;;;;;;15.52;84.31;155348.44;4975364;28;20978;-85
2023/05/07 00:23:28;;;;;;;3.40;3.10;;;;;;;15.50;84.54;155343.25;4959784;28;20980;-85
2023/05/07 00:25:55;;;;;;;4.00;3.60;;;;;;;15.51;86.32;155344.56;4955331;28;20456;-85
2023/05/07 00:28:21;;;;;;;3.73;3.30;;;;;;;15.40;84.67;155317.22;4952321;28;20992;-85
2023/05/07 00:30:48;;;;;;;4.40;3.30;;;;;;;15.31;84.77;155293.78;4938255;28;20479;-85
2023/05/07 00:33:14;;;;;;;5.97;3.50;;;;;;;15.32;87.04;155296.41;4955009;28;20454;-85
2023/05/07 00:35:41;;;;;;;3.83;3.47;;;;;;;15.31;86.91;155293.78;4954538;28;20449;-85
2023/05/07 00:38:09;;;;;;;4.13;3.73;;;;;;;15.27;85.45;155282.13;4952133;28;20485;-85
2023/05/07 00:40:35;;;;;;;3.83;3.53;;;;;;;15.29;85.63;155287.31;4957606;28;20458;-85
2023/05/07 00:43:02;;;;;;;3.40;3.10;;;;;;;15.34;84.79;155300.28;4954594;28;20509;-85
2023/05/07 00:45:29;;;;;;;3.50;3.20;;;;;;;15.32;82.74;155295.09;4954759;28;20458;-85
2023/05/07 00:47:56;;;;;;;3.70;2.97;;;;;;;15.37;82.22;155309.41;4952857;28;20499;-85
2023/05/07 00:50:23;;;;;;;3.40;3.10;;;;;;;15.40;82.14;155317.22;4960575;28;20552;-85
2023/05/07 00:52:50;;;;;;;3.30;3.00;;;;;;;15.42;82.14;155321.09;4953411;28;20459;-85
2023/05/07 00:55:18;;;;;;;4.60;4.00;;;;;;;15.40;82.69;155317.22;4984406;28;20501;-85
2023/05/07 00:57:45;;;;;;;3.50;3.10;;;;;;;15.38;84.98;155311.97;4966828;28;20836;-85
2023/05/07 01:00:12;;;;;;;3.90;3.10;;;;;;;15.27;85.67;155283.44;4942275;28;20557;-85
2023/05/07 01:02:39;;;;;;;3.20;3.00;;;;;;;15.20;86.26;155265.19;4967341;28;20458;-86
2023/05/07 01:05:09;;;;;;;3.50;2.97;;;;;;;15.16;87.16;155254.81;4951746;28;20469;-85
2023/05/07 01:07:36;;;;;;;3.83;3.53;;;;;;;15.09;87.14;155237.91;4955073;28;20452;-85
2023/05/07 01:10:03;;;;;;;4.00;3.23;;;;;;;15.00;86.79;155213.25;4969584;28;20867;-85
2023/05/07 01:12:31;;;;;;;4.40;3.00;;;;;;;14.90;88.04;155187.28;4968694;28;20453;-85
2023/05/07 01:14:58;;;;;;;4.20;3.80;;;;;;;14.83;89.23;155169.06;4954292;28;20550;-85
2023/05/07 01:17:25;;;;;;;4.20;3.13;;;;;;;14.77;89.46;155154.81;4937874;28;20959;-85
2023/05/07 01:19:52;;;;;;;3.17;2.87;;;;;;;14.71;89.07;155139.22;4936467;28;20485;-85
2023/05/07 01:22:29;;;;;;;4.67;3.40;;;;;;;14.64;89.39;155122.28;4951565;28;20480;-85
2023/05/07 01:24:56;;;;;;;4.13;3.80;;;;;;;14.58;89.15;155106.75;4932568;29;21006;-85
2023/05/07 01:27:24;;;;;;;3.70;3.40;;;;;;;14.57;90.40;155102.81;4944270;28;20507;-85
2023/05/07 01:29:52;;;;;;;4.60;3.73;;;;;;;14.55;91.13;155098.94;4969632;28;20442;-85
2023/05/07 01:32:20;;;;;;;3.90;3.50;;;;;;;14.52;91.63;155091.16;4955641;28;20538;-85
2023/05/07 01:34:49;;;;;;;5.40;3.80;;;;;;;14.52;91.77;155091.16;4953141;28;20469;-85
2023/05/07 01:37:15;;;;;;;4.40;4.00;;;;;;;14.56;91.58;155101.50;4944721;28;20462;-85
2023/05/07 01:39:44;;;;;;;4.80;3.43;;;;;;;14.63;90.21;155118.41;4961705;28;20523;-85
2023/05/07 01:42:10;;;;;;;3.90;3.50;;;;;;;14.72;88.98;155140.50;4938133;28;20477;-85
2023/05/07 01:44:37;;;;;;;5.23;3.43;;;;;;;14.79;88.88;155160.00;4972971;28;20447;-85
2023/05/07 01:47:05;;;;;;;3.33;3.03;;;;;;;14.85;90.16;155174.28;4959392;28;20445;-85
2023/05/07 01:49:31;;;;;;;3.77;3.37;;;;;;;14.77;88.52;155153.50;4969846;28;20459;-85
2023/05/07 01:51:58;;;;;;;4.10;3.70;;;;;;;14.73;87.90;155143.09;4951132;28;20578;-84
2023/05/07 01:54:29;;;;;;;3.60;3.30;;;;;;;14.77;87.78;155153.50;4937291;28;20463;-85
2023/05/07 01:56:58;;;;;;;3.40;3.00;;;;;;;14.80;88.82;155161.31;4936363;28;21042;-84
2023/05/07 01:59:25;;;;;;;3.50;3.20;;;;;;;14.80;88.68;155161.31;4934436;28;20557;-85
2023/05/07 02:01:52;;;;;;;3.37;3.07;;;;;;;14.79;88.33;155158.69;4967037;28;20462;-85
2023/05/07 02:04:18;;;;;;;4.13;3.73;;;;;;;14.81;88.54;155163.88;4969143;28;20452;-85
2023/05/07 02:06:45;;;;;;;4.00;2.97;;;;;;;14.83;87.95;155169.06;4936101;28;20445;-85
2023/05/07 02:09:14;;;;;;;4.27;3.53;;;;;;;14.81;86.66;155163.88;4958635;28;20526;-85
2023/05/07 02:11:43;;;;;;;4.10;3.70;;;;;;;14.82;87.90;155166.47;4933088;29;20469;-85
2023/05/07 02:14:11;;;;;;;4.70;3.13;;;;;;;14.74;87.79;155147.00;4933937;29;20469;-85
2023/05/07 02:16:38;;;;;;;3.40;3.10;;;;;;;14.68;89.34;155130.09;4932956;29;20462;-85
2023/05/07 02:19:05;;;;;;;6.30;3.73;;;;;;;14.62;88.43;155117.09;4919191;29;20483;-85
2023/05/07 02:21:31;;;;;;;4.27;3.53;;;;;;;14.67;87.40;155128.78;4941149;29;20540;-85
2023/05/07 02:23:58;;;;;;;3.33;3.03;;;;;;;14.67;88.59;155128.78;4949324;29;20458;-84
2023/05/07 02:26:25;;;;;;;4.03;3.63;;;;;;;14.65;89.82;155123.59;4917000;29;20455;-85
2023/05/07 02:28:52;;;;;;;4.10;3.70;;;;;;;14.59;90.04;155108.00;4920775;29;20471;-84
2023/05/07 02:31:20;;;;;;;5.33;3.67;;;;;;;14.49;88.98;155083.34;4939496;29;20458;-84
2023/05/07 02:33:47;;;;;;;4.30;3.90;;;;;;;14.45;90.23;155072.97;4917186;28;20447;-84
2023/05/07 02:36:14;;;;;;;3.70;3.40;;;;;;;14.41;90.04;155061.25;4948223;29;21021;-85
2023/05/07 02:38:50;;;;;;;3.73;3.20;;;;;;;14.33;90.47;155041.78;4915539;29;20487;-84
2023/05/07 02:41:17;;;;;;;3.90;3.50;;;;;;;14.28;91.33;155028.75;4933655;29;20444;-84
2023/05/07 02:43:44;;;;;;;3.77;3.47;;;;;;;14.21;91.81;155009.28;4948405;29;21202;-84
2023/05/07 02:46:11;;;;;;;4.13;3.73;;;;;;;14.13;92.06;154988.50;4930191;29;20556;-84
2023/05/07 02:48:43;;;;;;;7.13;3.47;;;;;;;14.04;92.46;154967.72;4917387;29;20460;-84
2023/05/07 02:51:09;;;;;;;4.00;3.40;;;;;;;14.01;94.30;154958.63;4914160;29;20790;-84
2023/05/07 02:53:38;;;;;;;3.43;3.13;;;;;;;13.91;94.04;154933.97;4912078;29;20808;-84
2023/05/07 02:56:06;;;;;;;4.37;3.97;;;;;;;13.88;94.87;154924.88;4937174;29;20483;-84
2023/05/07 02:58:32;;;;;;;3.97;3.57;;;;;;;13.82;94.69;154909.34;4951899;28;20643;-84
2023/05/07 03:01:00;;;;;;;3.90;3.60;;;;;;;13.77;94.17;154896.31;4954897;28;20438;-84
2023/05/07 03:03:41;;;;;;;4.10;3.70;;;;;;;13.75;95.61;154892.44;4919902;28;20538;-84
2023/05/07 03:06:09;;;;;;;4.20;3.47;;;;;;;13.76;95.08;154893.75;4947397;28;20465;-84
2023/05/07 03:08:36;;;;;;;3.50;3.10;;;;;;;13.79;94.30;154902.78;4939743;28;20451;-84
2023/05/07 03:11:02;;;;;;;4.33;3.93;;;;;;;13.85;94.30;154918.38;4963660;28;20486;-84
2023/05/07 03:13:29;;;;;;;4.60;3.43;;;;;;;13.94;91.89;154941.78;4955380;28;20512;-84
2023/05/07 03:15:56;;;;;;;4.10;3.63;;;;;;;14.05;93.15;154969.03;4959922;28;20876;-86
2023/05/07 03:18:22;;;;;;;4.17;3.77;;;;;;;14.03;92.08;154965.13;4955570;28;20450;-83
2023/05/07 03:20:49;;;;;;;3.40;3.00;;;;;;;14.08;92.94;154976.84;4970312;28;20462;-83
2023/05/07 03:23:18;;;;;;;3.83;3.40;;;;;;;14.09;93.57;154979.41;4938830;28;20501;-84
2023/05/07 03:25:45;;;;;;;4.13;3.73;;;;;;;14.07;92.93;154972.91;4973354;28;20859;-84
2023/05/07 03:28:11;;;;;;;4.70;3.33;;;;;;;14.06;93.09;154970.34;4938847;28;20501;-85
2023/05/07 03:30:44;;;;;;;3.67;3.30;;;;;;;14.02;93.29;154962.56;4936545;28;20680;-85
2023/05/07 03:33:11;;;;;;;4.10;3.30;;;;;;;14.02;93.59;154961.25;4971766;28;20497;-85
2023/05/07 03:35:38;;;;;;;3.80;3.47;;;;;;;14.02;93.33;154962.56;4940056;28;20486;-83
2023/05/07 03:38:05;;;;;;;3.93;3.63;;;;;;;13.98;92.03;154950.81;4935527;28;20474;-84
2023/05/07 03:40:36;;;;;;;3.90;3.50;;;;;;;13.99;91.81;154953.44;4954433;28;20494;-85
2023/05/07 03:43:04;;;;;;;4.63;3.70;;;;;;;13.97;91.03;154949.56;4935999;29;20551;-85
2023/05/07 03:45:32;;;;;;;3.17;2.90;;;;;;;13.98;91.97;154950.81;4939067;29;20459;-85
2023/05/07 03:48:10;;;;;;;3.40;3.10;;;;;;;13.98;92.60;154950.81;4971022;28;20462;-85
2023/05/07 03:50:38;;;;;;;4.37;3.53;;;;;;;13.97;92.75;154949.56;4958834;28;20456;-85
2023/05/07 03:53:05;;;;;;;4.60;3.60;;;;;;;13.98;92.03;154950.81;4954805;28;20470;-85
2023/05/07 03:55:35;;;;;;;3.67;3.20;;;;;;;13.99;91.96;154953.44;4937282;28;20470;-85
2023/05/07 03:58:02;;;;;;;3.83;3.53;;;;;;;13.96;91.82;154945.66;4955000;28;20973;-85
2023/05/07 04:00:33;;;;;;;5.90;3.70;;;;;;;13.91;91.47;154932.66;4960695;28;20574;-85
2023/05/07 04:03:00;;;;;;;5.20;3.70;;;;;;;13.85;90.49;154918.38;4954465;28;20894;-83
2023/05/07 04:05:30;;;;;;;3.90;3.60;;;;;;;13.86;91.85;154921.00;4955856;28;20461;-83
2023/05/07 04:08:01;;;;;;;4.67;4.23;;;;;;;13.85;92.33;154917.06;4962478;28;20547;-84
2023/05/07 04:10:36;;;;;;;5.90;4.00;;;;;;;13.79;92.00;154901.53;4926771;29;21057;-84
2023/05/07 04:13:08;;;;;;;4.37;3.97;;;;;;;13.75;91.60;154891.13;4918590;29;20712;-84
2023/05/07 04:15:36;;;;;;;4.40;3.97;;;;;;;13.77;91.07;154896.31;4921369;29;20478;-84
2023/05/07 04:18:03;;;;;;;7.40;4.17;;;;;;;13.83;89.72;154911.91;4931810;29;20494;-83
2023/05/07 04:20:30;;;;;;;3.90;3.50;;;;;;;13.93;88.50;154939.16;4917748;28;20501;-83
2023/05/07 04:23:02;;;;;;;4.30;3.90;;;;;;;14.01;89.03;154959.94;4941864;28;20485;-84
2023/05/07 04:25:30;;;;;;;4.50;3.90;;;;;;;14.05;89.80;154969.03;4941350;28;20953;-84
2023/05/07 04:28:05;;;;;;;3.73;3.33;;;;;;;14.06;90.10;154971.59;4943430;28;20450;-84
2023/05/07 04:30:33;;;;;;;5.10;3.70;;;;;;;14.07;89.53;154974.22;4922374;29;20463;-84
2023/05/07 04:32:59;;;;;;;4.60;3.73;;;;;;;14.10;90.10;154982.03;4925008;28;20487;-84
2023/05/07 04:35:28;;;;;;;4.07;3.70;;;;;;;14.12;90.78;154987.19;4926196;28;20475;-84
2023/05/07 04:37:55;;;;;;;4.97;3.90;;;;;;;14.10;89.61;154982.03;4927144;28;20462;-84
2023/05/07 04:40:21;;;;;;;6.10;4.20;;;;;;;14.12;88.19;154985.88;4939197;29;20993;-84
2023/05/07 04:42:48;;;;;;;5.67;4.60;;;;;;;14.16;89.77;154996.31;4945492;28;20458;-84
2023/05/07 04:45:16;;;;;;;4.07;3.67;;;;;;;14.17;89.48;155000.19;4941373;28;20949;-84
2023/05/07 04:47:45;;;;;;;4.60;4.00;;;;;;;14.21;89.94;155010.59;4934396;28;20463;-84
2023/05/07 04:50:11;;;;;;;5.97;4.43;;;;;;;14.25;90.61;155020.94;4947028;28;20823;-84
2023/05/07 04:52:39;;;;;;;5.33;4.00;;;;;;;14.24;90.87;155018.38;4923625;28;20455;-84
2023/05/07 04:55:07;;;;;;;4.40;4.00;;;;;;;14.27;91.24;155024.88;4942942;28;20464;-84
2023/05/07 04:57:39;;;;;;;4.23;3.83;;;;;;;14.21;90.84;155009.28;4929297;28;20518;-84
2023/05/07 05:00:08;;;;;;;5.07;4.67;;;;;;;14.19;90.51;155005.34;4956804;28;20522;-84
2023/05/07 05:02:37;;;;;;;3.93;3.63;;;;;;;14.22;90.07;155013.16;4928501;28;20455;-84
2023/05/07 05:05:05;;;;;;;4.70;4.10;;;;;;;14.26;90.78;155022.25;4951583;28;20945;-84
2023/05/07 05:07:31;;;;;;;3.97;3.57;;;;;;;14.23;92.05;155015.78;4930164;28;20464;-84
2023/05/07 05:09:58;;;;;;;6.60;4.50;;;;;;;14.23;92.46;155015.78;4952463;28;20493;-84
2023/05/07 05:12:25;;;;;;;4.80;4.40;;;;;;;14.25;92.17;155020.94;4936078;28;20463;-85
2023/05/07 05:14:51;;;;;;;5.80;4.37;;;;;;;14.24;90.38;155018.38;4926607;29;20468;-84
2023/05/07 05:17:18;;;;;;;5.33;4.60;;;;;;;14.27;89.44;155026.13;4936050;29;20462;-84
2023/05/07 05:19:46;;;;;;;5.07;4.30;;;;;;;14.34;88.65;155044.41;4930502;28;20488;-84
2023/05/07 05:22:13;;;;;;;4.80;4.33;;;;;;;14.37;89.72;155052.19;4937666;28;20798;-84
2023/05/07 05:24:40;;;;;;;6.03;4.80;;;;;;;14.56;90.87;155101.50;4925107;28;20475;-84
2023/05/07 05:27:07;;;;;;;5.33;4.83;;;;;;;14.86;91.89;155176.84;4952096;28;20463;-84
2023/05/07 05:29:33;;;;;;;4.93;4.43;;;;;;;15.17;89.36;155257.41;4955705;28;20562;-84
2023/05/07 05:32:00;;;;;;;4.73;4.33;;;;;;;15.53;85.79;155349.75;4961277;28;20848;-84
2023/05/07 05:34:29;;;;;;;5.07;4.57;;;;;;;15.86;81.41;155434.25;4945710;28;20988;-85
2023/05/07 05:36:58;;;;;;;4.97;4.00;;;;;;;16.20;79.90;155522.66;4933346;28;20462;-84
2023/05/07 05:39:24;;;;;;;4.77;4.27;;;;;;;16.48;79.71;155595.47;4953386;28;20490;-85
2023/05/07 05:41:51;;;;;;;4.73;3.93;;;;;;;16.70;78.45;155651.47;4935954;28;20469;-85
2023/05/07 05:44:18;;;;;;;4.90;4.40;;;;;;;16.97;78.70;155723.00;4929177;28;20464;-84
2023/05/07 05:46:44;;;;;;;6.70;4.53;;;;;;;17.22;75.14;155786.78;4938685;28;20468;-85
2023/05/07 05:49:11;;;;;;;4.50;4.10;;;;;;;17.45;74.72;155845.34;4919013;28;20463;-84
2023/05/07 05:51:38;;;;;;;4.33;3.93;;;;;;;17.67;74.39;155902.69;4921339;28;20475;-84
2023/05/07 05:54:06;;;;;;;4.27;3.47;;;;;;;17.92;72.41;155967.78;4937266;29;20506;-85
2023/05/07 05:56:33;;;;;;;4.37;3.97;;;;;;;18.10;72.05;156014.66;4941014;28;20457;-85
2023/05/07 05:59:00;;;;;;;4.07;3.67;;;;;;;18.25;70.34;156053.72;4953663;28;20475;-85
2023/05/07 06:01:27;;;;;;;4.30;3.90;;;;;;;18.13;69.64;156022.50;4951371;28;20512;-85
2023/05/07 06:03:57;;;;;;;4.23;3.67;;;;;;;18.20;69.43;156039.38;4920828;29;20463;-85
2023/05/07 06:06:23;;;;;;;5.30;4.57;;;;;;;18.10;69.52;156013.34;4934433;28;21039;-85
2023/05/07 06:08:50;;;;;;;4.00;3.60;;;;;;;18.03;70.12;155996.41;4914865;28;20474;-85
2023/05/07 06:11:23;;;;;;;4.30;3.90;;;;;;;18.17;70.59;156031.56;4921879;28;20451;-86
2023/05/07 06:13:50;;;;;;;5.33;4.10;;;;;;;18.37;70.54;156082.38;4938465;29;21282;-86
2023/05/07 06:16:16;;;;;;;5.10;4.67;;;;;;;18.56;70.55;156131.94;4939149;28;20594;-85
2023/05/07 06:18:45;;;;;;;5.30;4.80;;;;;;;18.77;68.58;156187.91;4920421;29;20470;-86
2023/05/07 06:21:14;;;;;;;4.60;4.00;;;;;;;18.85;67.82;156207.47;4939832;28;20577;-85
2023/05/07 06:23:41;;;;;;;5.30;4.60;;;;;;;18.66;69.16;156158.00;4948737;28;20460;-85
2023/05/07 06:26:09;;;;;;;8.77;4.47;;;;;;;18.64;69.70;156152.75;4934928;28;20506;-86
2023/05/07 06:28:45;;;;;;;5.90;5.03;;;;;;;18.64;68.19;156152.75;4936734;28;20897;-86
2023/05/07 06:31:15;;;;;;;5.23;4.83;;;;;;;18.68;67.98;156163.19;4914083;28;20450;-86
2023/05/07 06:33:44;;;;;;;5.43;4.93;;;;;;;18.59;69.29;156139.72;4960502;28;20517;-86
2023/05/07 06:36:11;;;;;;;5.33;4.83;;;;;;;18.43;69.76;156097.97;4943756;28;20925;-86
2023/05/07 06:38:39;;;;;;;5.20;4.80;;;;;;;18.27;70.99;156058.91;4931424;28;20469;-86
2023/05/07 06:41:06;;;;;;;5.10;4.60;;;;;;;18.14;71.13;156025.06;4946692;28;20941;-86
2023/05/07 06:43:33;;;;;;;5.67;5.07;;;;;;;18.04;70.57;155999.03;4928459;28;20513;-86
2023/05/07 06:46:20;;;;;;;7.70;5.00;;;;;;;17.86;72.44;155950.84;4943149;28;20486;-86
2023/05/07 06:48:47;;;;;;;5.13;4.73;;;;;;;17.87;72.78;155953.47;4948311;29;20463;-86
2023/05/07 06:51:14;;;;;;;5.43;4.93;;;;;;;17.79;72.68;155933.91;4940954;28;20892;-87
2023/05/07 06:53:41;;;;;;;5.70;5.07;;;;;;;17.85;74.10;155949.53;4964309;28;20447;-87
2023/05/07 06:56:10;;;;;;;5.90;5.40;;;;;;;18.17;73.93;156031.56;4939750;28;20466;-86
2023/05/07 06:58:38;;;;;;;5.23;4.73;;;;;;;18.35;72.29;156077.19;4925896;28;21009;-86
2023/05/07 07:01:06;;;;;;;5.40;4.90;;;;;;;18.70;71.71;156168.38;4939620;28;20483;-86
2023/05/07 07:03:35;;;;;;;5.53;5.00;;;;;;;19.01;69.91;156247.91;4920904;29;20464;-86
2023/05/07 07:06:03;;;;;;;5.63;5.13;;;;;;;19.07;69.35;156264.81;4956622;28;20473;-85
2023/05/07 07:08:32;;;;;;;5.80;5.30;;;;;;;19.14;68.91;156283.03;4940303;28;20462;-86
2023/05/07 07:10:59;;;;;;;5.63;4.97;;;;;;;19.27;69.50;156316.91;4917254;28;20490;-86
2023/05/07 07:13:26;;;;;;;5.43;4.93;;;;;;;19.32;68.23;156330.00;4951522;28;20459;-87
2023/05/07 07:15:52;;;;;;;5.17;4.73;;;;;;;19.48;68.33;156370.44;4921507;28;20471;-87
2023/05/07 07:18:20;;;;;;;5.83;4.80;;;;;;;19.70;68.73;156427.78;4936725;29;20997;-86
2023/05/07 07:20:49;;;;;;;5.10;4.57;;;;;;;19.85;66.94;156465.63;4936843;29;20526;-87
2023/05/07 07:23:16;;;;;;;6.07;5.10;;;;;;;19.85;66.68;156465.63;4937964;29;20448;-86
2023/05/07 07:25:43;;;;;;;5.47;4.93;;;;;;;19.99;67.82;156503.41;4936728;29;20451;-87
2023/05/07 07:28:10;;;;;;;5.50;5.00;;;;;;;20.18;66.92;156551.66;4924446;29;20456;-87
2023/05/07 07:30:38;;;;;;;5.63;5.13;;;;;;;20.35;66.93;156596.06;4912476;29;20878;-87
2023/05/07 07:33:05;;;;;;;5.13;4.67;;;;;;;20.74;66.72;156696.50;4943754;28;20541;-87
2023/05/07 07:35:35;;;;;;;5.47;4.97;;;;;;;21.00;65.42;156763.03;4953970;28;20543;-87
2023/05/07 07:38:05;;;;;;;5.57;5.07;;;;;;;21.14;64.12;156800.94;4919347;29;20455;-87
2023/05/07 07:40:32;;;;;;;5.97;5.27;;;;;;;21.31;63.87;156844.03;4945937;28;20892;-87
2023/05/07 07:43:01;;;;;;;5.53;5.03;;;;;;;21.12;63.98;156794.44;4934375;29;20451;-87
2023/05/07 07:45:27;;;;;;;6.07;5.57;;;;;;;21.30;63.06;156841.41;4951057;28;20446;-88
2023/05/07 07:47:54;;;;;;;6.03;5.43;;;;;;;21.17;63.34;156807.47;4931936;29;20465;-87
2023/05/07 07:50:21;;;;;;;6.40;5.80;;;;;;;21.42;62.66;156872.72;4941803;28;20823;-87
2023/05/07 07:52:48;;;;;;;6.27;5.70;;;;;;;21.53;61.31;156901.44;4911007;29;21066;-87
2023/05/07 07:55:22;;;;;;;6.17;5.67;;;;;;;21.58;62.18;156914.47;4920850;28;20511;-87
2023/05/07 07:57:50;;;;;;;6.50;5.00;;;;;;;21.72;61.67;156951.06;4917530;29;20475;-87
2023/05/07 08:00:17;;;;;;;6.40;5.80;;;;;;;21.89;59.56;156992.88;4936301;29;20850;-87
2023/05/07 08:02:44;;;;;;;5.93;5.33;;;;;;;22.09;61.90;157045.09;4946287;29;20514;-88
2023/05/07 08:05:16;;;;;;;5.93;5.33;;;;;;;22.18;59.68;157069.94;4919858;29;20547;-87
2023/05/07 08:07:44;;;;;;;5.33;4.83;;;;;;;22.26;60.75;157089.53;4940987;29;20459;-87
2023/05/07 08:10:12;;;;;;;5.87;5.30;;;;;;;22.24;59.00;157084.31;4932219;28;20495;-87
2023/05/07 08:12:41;;;;;;;6.07;5.50;;;;;;;22.17;59.63;157066.00;4950258;29;20491;-87
2023/05/07 08:15:09;;;;;;;5.97;5.40;;;;;;;22.33;60.02;157109.13;4929062;29;21140;-88
2023/05/07 08:17:35;;;;;;;5.63;5.13;;;;;;;22.54;59.54;157161.34;4952384;29;20530;-87
2023/05/07 08:20:02;;;;;;;4.87;4.47;;;;;;;22.66;60.19;157192.78;4931505;29;20569;-88
2023/05/07 08:22:30;;;;;;;5.47;4.67;;;;;;;22.51;59.32;157154.81;4920030;29;20494;-87
2023/05/07 08:24:56;;;;;;;5.83;5.33;;;;;;;22.55;58.03;157165.28;4920682;29;20492;-88
2023/05/07 08:27:23;;;;;;;5.43;4.93;;;;;;;22.65;58.62;157191.47;4935568;29;20460;-88
2023/05/07 08:29:51;;;;;;;5.47;4.97;;;;;;;22.78;58.61;157225.41;4917331;29;20471;-87
2023/05/07 08:32:20;;;;;;;5.93;5.40;;;;;;;23.02;58.24;157288.16;4918250;29;20468;-88
2023/05/07 08:34:46;;;;;;;4.90;4.40;;;;;;;23.21;58.86;157335.19;4928692;29;20464;-88
2023/05/07 08:37:13;;;;;;;5.27;4.80;;;;;;;23.52;56.77;157417.56;4940465;29;20574;-88
2023/05/07 08:39:40;;;;;;;7.10;5.53;;;;;;;23.61;55.87;157439.81;4919925;29;20474;-88
2023/05/07 08:42:13;;;;;;;6.07;5.57;;;;;;;23.60;55.67;157437.16;4918138;28;20487;-88
2023/05/07 08:44:40;;;;;;;6.10;5.50;;;;;;;23.53;56.80;157418.88;4916056;29;20459;-88
2023/05/07 08:47:08;;;;;;;6.50;5.90;;;;;;;23.47;56.69;157403.19;4935157;29;20562;-88
2023/05/07 08:49:37;;;;;;;6.67;6.07;;;;;;;23.52;56.56;157416.25;4919799;29;20442;-88
2023/05/07 08:52:19;;;;;;;5.90;5.40;;;;;;;23.37;56.06;157377.06;4915181;29;20554;-88
2023/05/07 08:54:47;;;;;;;5.67;5.17;;;;;;;23.28;56.41;157353.47;4935455;28;20452;-88
2023/05/07 08:57:14;;;;;;;5.73;5.23;;;;;;;23.21;56.67;157335.19;4937247;29;20463;-88
2023/05/07 08:59:41;;;;;;;6.00;5.50;;;;;;;23.08;56.25;157301.22;4929074;29;20560;-88
2023/05/07 09:02:11;;;;;;;6.03;5.43;;;;;;;22.82;57.66;157235.84;4933483;29;20641;-87
2023/05/07 09:04:38;;;;;;;5.03;4.63;;;;;;;22.97;58.63;157275.09;4950231;29;20507;-87
2023/05/07 09:07:05;;;;;;;5.47;4.93;;;;;;;23.11;58.38;157310.38;4948005;29;20467;-86
2023/05/07 09:09:35;;;;;;;5.23;4.73;;;;;;;23.29;56.76;157356.09;4931653;28;20982;-87
2023/05/07 09:12:03;;;;;;;4.60;4.20;;;;;;;23.52;56.41;157417.56;4932099;29;21009;-87
2023/05/07 09:14:33;;;;;;;4.60;4.20;;;;;;;23.58;55.94;157433.28;4931900;28;20538;-87
2023/05/07 09:17:00;;;;;;;4.70;4.20;;;;;;;23.72;56.28;157468.56;4956976;28;20492;-87
2023/05/07 09:19:29;;;;;;;5.73;4.40;;;;;;;23.82;55.39;157494.72;4927982;28;20461;-87
2023/05/07 09:22:02;;;;;;;5.30;4.80;;;;;;;23.91;55.48;157518.22;4940899;28;20484;-87
2023/05/07 09:24:34;;;;;;;4.20;3.90;;;;;;;23.89;56.53;157513.00;4939554;28;20443;-87
2023/05/07 09:27:02;;;;;;;4.10;3.70;;;;;;;23.96;56.06;157531.28;4942454;28;20462;-86
2023/05/07 09:29:34;;;;;;;4.77;4.37;;;;;;;23.97;54.92;157533.91;4923034;28;20451;-87
2023/05/07 09:32:03;;;;;;;3.97;3.57;;;;;;;23.89;57.63;157513.00;4922620;28;20466;-88
2023/05/07 09:34:31;;;;;;;9.70;7.50;;;;;;;23.92;56.12;157520.84;4939243;28;20451;-87
2023/05/07 09:36:59;;;;;;;4.80;4.30;;;;;;;23.84;55.38;157498.63;4930966;28;20452;-87
2023/05/07 09:39:27;;;;;;;4.17;3.87;;;;;;;23.87;57.75;157506.47;4927667;28;20509;-87
2023/05/07 09:41:54;;;;;;;4.90;4.40;;;;;;;24.06;55.69;157557.47;4934674;28;20571;-88
2023/05/07 09:44:32;;;;;;;4.70;4.20;;;;;;;24.03;54.94;157549.63;4948046;28;20965;-87
2023/05/07 09:47:00;;;;;;;6.30;4.30;;;;;;;24.00;55.94;157540.47;4941391;28;20466;-87
2023/05/07 09:49:37;;;;;;;5.37;4.87;;;;;;;23.75;55.80;157476.38;4944800;29;20551;-86
2023/05/07 09:52:08;;;;;;;4.67;4.27;;;;;;;23.81;56.71;157492.06;4945251;28;20459;-87
2023/05/07 09:54:38;;;;;;;5.07;4.67;;;;;;;23.79;56.00;157485.53;4941385;28;21072;-87
2023/05/07 09:57:07;;;;;;;5.30;4.27;;;;;;;23.80;55.94;157489.44;4942644;28;20864;-87
2023/05/07 09:59:35;;;;;;;5.73;5.23;;;;;;;23.82;55.54;157493.41;4925417;28;20450;-87
2023/05/07 10:02:05;;;;;;;4.60;4.20;;;;;;;23.74;54.76;157473.78;4924539;28;20480;-87
2023/05/07 10:04:38;;;;;;;4.97;4.47;;;;;;;23.60;56.24;157438.50;4925119;28;20443;-87
2023/05/07 10:07:05;;;;;;;4.27;3.90;;;;;;;23.60;56.44;157438.50;4951927;28;20460;-87
2023/05/07 10:09:33;;;;;;;4.50;4.10;;;;;;;23.64;56.47;157448.91;4926687;28;20890;-86
2023/05/07 10:12:00;;;;;;;4.57;4.20;;;;;;;23.62;54.99;157442.38;4950850;28;20459;-87
2023/05/07 10:14:29;;;;;;;4.60;4.20;;;;;;;23.66;57.28;157452.88;4956435;28;20456;-86
2023/05/07 10:16:56;;;;;;;4.60;4.07;;;;;;;23.58;55.10;157431.97;4936983;28;20461;-86
2023/05/07 10:19:23;;;;;;;4.90;4.47;;;;;;;23.58;56.46;157433.28;4944120;28;20458;-87
2023/05/07 10:21:56;;;;;;;4.27;3.87;;;;;;;23.76;57.18;157477.69;4963251;28;20510;-87
2023/05/07 10:24:27;;;;;;;5.40;4.90;;;;;;;23.84;55.26;157498.63;4935334;28;20492;-87
2023/05/07 10:26:55;;;;;;;4.97;3.90;;;;;;;23.68;55.21;157458.09;4958410;28;20471;-87
2023/05/07 10:29:29;;;;;;;5.70;5.20;;;;;;;23.73;54.96;157469.84;4962021;28;20453;-87
2023/05/07 10:32:00;;;;;;;5.37;4.70;;;;;;;23.80;61.99;157489.44;4940147;28;20446;-87
2023/05/07 10:34:33;;;;;;;4.17;3.80;;;;;;;23.56;54.65;157428.00;4940750;28;20450;-87
2023/05/07 10:37:01;;;;;;;4.63;4.03;;;;;;;23.40;55.06;157386.22;4959187;28;21110;-86
2023/05/07 10:39:28;;;;;;;4.77;3.77;;;;;;;23.41;56.33;157388.81;4945959;28;20460;-87
2023/05/07 10:41:55;;;;;;;4.40;4.10;;;;;;;23.76;57.67;157479.00;4937561;28;20482;-86
2023/05/07 10:44:27;;;;;;;4.30;3.93;;;;;;;23.88;56.32;157509.09;4945018;28;20526;-87
2023/05/07 10:47:10;;;;;;;5.93;4.50;;;;;;;24.06;55.77;157557.47;4958083;28;20453;-87
2023/05/07 10:50:24;;;;;;;5.50;4.73;;;;;;;24.21;56.62;157596.75;4943948;28;20872;-86
2023/05/07 10:53:23;;;;;;;4.07;3.73;;;;;;;24.43;54.34;157651.69;4939887;28;20478;-86
2023/05/07 10:56:29;;;;;;;4.67;4.27;;;;;;;24.45;52.71;157656.91;4939900;28;20520;-87
2023/05/07 10:59:41;;;;;;;4.57;4.17;;;;;;;24.15;52.24;157579.72;4943733;28;20446;-87
2023/05/07 11:02:16;;;;;;;4.83;4.43;;;;;;;23.83;54.45;157497.28;4940493;28;20475;-88
2023/05/07 11:05:19;;;;;;;6.93;4.43;;;;;;;23.79;54.08;157486.88;4955016;28;20466;-88
2023/05/07 11:07:55;;;;;;;3.87;3.57;;;;;;;23.84;54.02;157499.94;4948620;28;20465;-88
2023/05/07 11:10:21;;;;;;;3.93;3.63;;;;;;;23.66;52.94;157451.56;4956937;28;21004;-87
2023/05/07 11:12:56;;;;;;;4.30;3.57;;;;;;;23.75;53.41;157475.13;4955559;28;20513;-87
2023/05/07 11:15:41;;;;;;;3.90;3.60;;;;;;;23.92;51.74;157520.84;4940126;28;20451;-88
2023/05/07 11:18:18;;;;;;;5.33;3.37;;;;;;;24.12;51.30;157573.19;4962538;28;20476;-87
2023/05/07 11:20:50;;;;;;;4.07;3.40;;;;;;;24.06;49.42;157557.47;4959679;28;20822;-88
2023/05/07 11:24:00;;;;;;;3.47;3.10;;;;;;;24.04;50.44;157550.94;4954892;28;20463;-87
2023/05/07 11:26:47;;;;;;;4.30;3.53;;;;;;;24.10;49.86;157567.97;4940530;28;21169;-87
2023/05/07 11:29:16;;;;;;;3.83;3.53;;;;;;;24.25;49.74;157605.91;4938496;28;20450;-88
2023/05/07 11:31:43;;;;;;;3.20;2.90;;;;;;;24.31;48.24;157621.56;4977655;28;20455;-88
2023/05/07 11:34:11;;;;;;;4.00;3.60;;;;;;;24.28;47.70;157613.72;4958885;28;20466;-88